ANA756 RJTT-RJNK
Flight info
| Callsign | ANA756 |
|---|---|
| Flight time | 0h 50m |
| Altitude | 24000 |
| Route | BEKLA3A BEKLA Y884 KMC |
| Aircraft | A21N/M-V/N |
Departure
| Time | 2026-05-07 13:35 |
|---|---|
| Airport | Tokyo Haneda International Airport (RJTT) |
Arrival
| Time | 2026-05-07 14:26 |
|---|---|
| Airport | Komatsu Airport / JASDF Komatsu Air Base (RJNK) |
| Time | Latitude | Longitude | Altitude | Speed | Heading |
|---|---|---|---|---|---|
| 2026-05-07 13:12 | 35.55155 | 139.78946 | 33 ft | 0 kts | 240° |
| 2026-05-07 13:24 | 35.55163 | 139.78963 | 32 ft | 2 kts | 241° |
| 2026-05-07 13:25 | 35.55171 | 139.78981 | 32 ft | 2 kts | 243° |
| 2026-05-07 13:25 | 35.55178 | 139.78999 | 32 ft | 2 kts | 246° |
| 2026-05-07 13:25 | 35.55184 | 139.79018 | 32 ft | 2 kts | 255° |
| 2026-05-07 13:25 | 35.55185 | 139.79039 | 32 ft | 2 kts | 289° |
| 2026-05-07 13:26 | 35.55177 | 139.79052 | 32 ft | 1 kts | 329° |
| 2026-05-07 13:26 | 35.55175 | 139.79053 | 32 ft | 0 kts | 329° |
| 2026-05-07 13:29 | 35.55180 | 139.79050 | 32 ft | 3 kts | 330° |
| 2026-05-07 13:29 | 35.55211 | 139.79028 | 33 ft | 8 kts | 330° |
| 2026-05-07 13:30 | 35.55271 | 139.78987 | 33 ft | 12 kts | 330° |
| 2026-05-07 13:30 | 35.55345 | 139.78937 | 33 ft | 12 kts | 341° |
| 2026-05-07 13:30 | 35.55421 | 139.78983 | 32 ft | 14 kts | 56° |
| 2026-05-07 13:30 | 35.55469 | 139.79083 | 31 ft | 14 kts | 59° |
| 2026-05-07 13:31 | 35.55547 | 139.79138 | 31 ft | 15 kts | 342° |
| 2026-05-07 13:31 | 35.55643 | 139.79072 | 31 ft | 16 kts | 329° |
| 2026-05-07 13:31 | 35.55744 | 139.78998 | 31 ft | 17 kts | 329° |
| 2026-05-07 13:31 | 35.55850 | 139.78922 | 29 ft | 18 kts | 330° |
| 2026-05-07 13:32 | 35.55959 | 139.78846 | 29 ft | 17 kts | 330° |
| 2026-05-07 13:32 | 35.56063 | 139.78772 | 30 ft | 17 kts | 330° |
| 2026-05-07 13:32 | 35.56167 | 139.78699 | 29 ft | 18 kts | 330° |
| 2026-05-07 13:32 | 35.56277 | 139.78622 | 30 ft | 18 kts | 330° |
| 2026-05-07 13:33 | 35.56375 | 139.78556 | 30 ft | 15 kts | 343° |
| 2026-05-07 13:33 | 35.56441 | 139.78595 | 31 ft | 0 kts | 60° |
| 2026-05-07 13:34 | 35.56445 | 139.78605 | 31 ft | 8 kts | 60° |
| 2026-05-07 13:34 | 35.56396 | 139.78794 | 34 ft | 14 kts | 149° |
| 2026-05-07 13:34 | 35.56267 | 139.78885 | 32 ft | 45 kts | 150° |
| 2026-05-07 13:35 | 35.55786 | 139.79222 | 33 ft | 112 kts | 150° |
| 2026-05-07 13:35 | 35.54954 | 139.79809 | 38 ft | 160 kts | 152° |
| 2026-05-07 13:35 | 35.53980 | 139.80470 | 575 ft | 155 kts | 155° |
| 2026-05-07 13:35 | 35.53104 | 139.81300 | 1003 ft | 168 kts | 137° |
| 2026-05-07 13:36 | 35.52327 | 139.82415 | 1419 ft | 176 kts | 139° |
| 2026-05-07 13:36 | 35.51431 | 139.83548 | 1714 ft | 194 kts | 141° |
| 2026-05-07 13:36 | 35.50448 | 139.84773 | 2093 ft | 209 kts | 141° |
| 2026-05-07 13:36 | 35.49400 | 139.86082 | 2556 ft | 222 kts | 140° |
| 2026-05-07 13:37 | 35.48286 | 139.87476 | 3001 ft | 237 kts | 140° |
| 2026-05-07 13:37 | 35.47077 | 139.88984 | 3303 ft | 258 kts | 140° |
| 2026-05-07 13:37 | 35.45951 | 139.90803 | 3741 ft | 280 kts | 118° |
| 2026-05-07 13:37 | 35.45573 | 139.93178 | 4397 ft | 292 kts | 87° |
| 2026-05-07 13:38 | 35.46199 | 139.95548 | 5126 ft | 296 kts | 56° |
| 2026-05-07 13:38 | 35.47667 | 139.97263 | 5797 ft | 293 kts | 25° |
| 2026-05-07 13:38 | 35.49598 | 139.97896 | 6447 ft | 287 kts | 356° |
| 2026-05-07 13:38 | 35.51591 | 139.97754 | 7099 ft | 288 kts | 350° |
| 2026-05-07 13:39 | 35.53602 | 139.97550 | 7753 ft | 292 kts | 351° |
| 2026-05-07 13:39 | 35.55644 | 139.97401 | 8395 ft | 296 kts | 353° |
| 2026-05-07 13:39 | 35.57709 | 139.97311 | 9054 ft | 299 kts | 353° |
| 2026-05-07 13:39 | 35.59803 | 139.97226 | 9709 ft | 302 kts | 353° |
| 2026-05-07 13:40 | 35.61921 | 139.97092 | 10217 ft | 307 kts | 345° |
| 2026-05-07 13:40 | 35.63921 | 139.96190 | 10485 ft | 310 kts | 322° |
| 2026-05-07 13:40 | 35.65495 | 139.94370 | 10708 ft | 316 kts | 300° |
| 2026-05-07 13:40 | 35.66412 | 139.91930 | 10923 ft | 324 kts | 283° |
| 2026-05-07 13:41 | 35.67010 | 139.89153 | 11139 ft | 339 kts | 281° |
| 2026-05-07 13:41 | 35.67605 | 139.86282 | 11338 ft | 355 kts | 282° |
| 2026-05-07 13:41 | 35.68252 | 139.83306 | 11672 ft | 364 kts | 282° |
| 2026-05-07 13:41 | 35.68925 | 139.80283 | 12190 ft | 368 kts | 282° |
| 2026-05-07 13:42 | 35.69615 | 139.77243 | 12735 ft | 370 kts | 283° |
| 2026-05-07 13:42 | 35.70313 | 139.74182 | 13267 ft | 373 kts | 283° |
| 2026-05-07 13:42 | 35.71020 | 139.71094 | 13762 ft | 376 kts | 283° |
| 2026-05-07 13:42 | 35.71728 | 139.68004 | 14201 ft | 378 kts | 283° |
| 2026-05-07 13:43 | 35.72438 | 139.64903 | 14636 ft | 381 kts | 283° |
| 2026-05-07 13:43 | 35.73167 | 139.61711 | 15101 ft | 384 kts | 283° |
| 2026-05-07 13:43 | 35.73890 | 139.58540 | 15543 ft | 387 kts | 283° |
| 2026-05-07 13:43 | 35.74621 | 139.55328 | 15993 ft | 390 kts | 283° |
| 2026-05-07 13:44 | 35.75345 | 139.52142 | 16423 ft | 393 kts | 283° |
| 2026-05-07 13:44 | 35.76091 | 139.48855 | 16860 ft | 395 kts | 283° |
| 2026-05-07 13:44 | 35.76824 | 139.45624 | 17286 ft | 398 kts | 283° |
| 2026-05-07 13:44 | 35.77571 | 139.42325 | 17715 ft | 401 kts | 283° |
| 2026-05-07 13:45 | 35.78332 | 139.38964 | 18139 ft | 404 kts | 283° |
| 2026-05-07 13:45 | 35.79078 | 139.35667 | 18504 ft | 406 kts | 283° |
| 2026-05-07 13:45 | 35.79838 | 139.32306 | 18853 ft | 408 kts | 283° |
| 2026-05-07 13:45 | 35.80598 | 139.28928 | 19224 ft | 410 kts | 283° |
| 2026-05-07 13:46 | 35.81371 | 139.25488 | 19605 ft | 412 kts | 283° |
| 2026-05-07 13:46 | 35.82137 | 139.22080 | 19986 ft | 414 kts | 283° |
| 2026-05-07 13:46 | 35.82896 | 139.18699 | 20348 ft | 416 kts | 283° |
| 2026-05-07 13:46 | 35.83731 | 139.15268 | 20697 ft | 419 kts | 285° |
| 2026-05-07 13:47 | 35.84631 | 139.11851 | 21024 ft | 420 kts | 285° |
| 2026-05-07 13:47 | 35.85541 | 139.08413 | 21387 ft | 423 kts | 285° |
| 2026-05-07 13:47 | 35.86453 | 139.04965 | 21763 ft | 424 kts | 285° |
| 2026-05-07 13:47 | 35.87367 | 139.01505 | 22125 ft | 426 kts | 285° |
| 2026-05-07 13:48 | 35.88281 | 138.98023 | 22495 ft | 428 kts | 285° |
| 2026-05-07 13:48 | 35.89201 | 138.94518 | 22836 ft | 430 kts | 285° |
| 2026-05-07 13:48 | 35.90126 | 138.90994 | 23187 ft | 433 kts | 285° |
| 2026-05-07 13:48 | 35.91052 | 138.87455 | 23531 ft | 434 kts | 285° |
| 2026-05-07 13:49 | 35.91983 | 138.83900 | 23847 ft | 436 kts | 284° |
| 2026-05-07 13:49 | 35.92917 | 138.80323 | 23982 ft | 441 kts | 284° |
| 2026-05-07 13:49 | 35.93862 | 138.76684 | 24009 ft | 447 kts | 284° |
| 2026-05-07 13:49 | 35.94810 | 138.73036 | 23992 ft | 447 kts | 284° |
| 2026-05-07 13:50 | 35.95761 | 138.69378 | 23988 ft | 447 kts | 284° |
| 2026-05-07 13:50 | 35.96711 | 138.65733 | 23978 ft | 446 kts | 284° |
| 2026-05-07 13:50 | 35.97658 | 138.62089 | 23980 ft | 446 kts | 284° |
| 2026-05-07 13:50 | 35.98603 | 138.58448 | 23978 ft | 446 kts | 284° |
| 2026-05-07 13:51 | 35.99548 | 138.54797 | 23981 ft | 446 kts | 284° |
| 2026-05-07 13:51 | 36.00492 | 138.51145 | 23981 ft | 446 kts | 284° |
| 2026-05-07 13:51 | 36.01445 | 138.47448 | 23980 ft | 447 kts | 284° |
| 2026-05-07 13:51 | 36.02377 | 138.43835 | 23978 ft | 447 kts | 284° |
| 2026-05-07 13:52 | 36.03316 | 138.40182 | 23978 ft | 446 kts | 284° |
| 2026-05-07 13:52 | 36.04256 | 138.36518 | 23978 ft | 446 kts | 284° |
| 2026-05-07 13:52 | 36.05195 | 138.32866 | 23980 ft | 446 kts | 284° |
| 2026-05-07 13:52 | 36.06134 | 138.29206 | 23979 ft | 446 kts | 284° |
| 2026-05-07 13:53 | 36.07068 | 138.25554 | 23981 ft | 446 kts | 284° |
| 2026-05-07 13:53 | 36.08000 | 138.21907 | 23983 ft | 445 kts | 284° |
| 2026-05-07 13:53 | 36.08935 | 138.18244 | 23977 ft | 445 kts | 284° |
| 2026-05-07 13:53 | 36.09860 | 138.14605 | 23975 ft | 444 kts | 284° |
| 2026-05-07 13:54 | 36.10787 | 138.10964 | 23963 ft | 443 kts | 284° |
| 2026-05-07 13:54 | 36.11706 | 138.07359 | 23616 ft | 433 kts | 284° |
| 2026-05-07 13:54 | 36.12595 | 138.03864 | 23293 ft | 421 kts | 283° |
| 2026-05-07 13:54 | 36.13466 | 138.00417 | 23014 ft | 419 kts | 283° |
| 2026-05-07 13:55 | 36.14332 | 137.96981 | 22747 ft | 417 kts | 283° |
| 2026-05-07 13:55 | 36.15194 | 137.93562 | 22482 ft | 415 kts | 283° |
| 2026-05-07 13:55 | 36.15907 | 137.90128 | 22228 ft | 411 kts | 278° |
| 2026-05-07 13:55 | 36.16484 | 137.86670 | 21973 ft | 409 kts | 278° |
| 2026-05-07 13:56 | 36.17047 | 137.83221 | 21728 ft | 409 kts | 278° |
| 2026-05-07 13:56 | 36.17606 | 137.79787 | 21478 ft | 406 kts | 278° |
| 2026-05-07 13:56 | 36.18166 | 137.76371 | 21231 ft | 404 kts | 278° |
| 2026-05-07 13:56 | 36.18723 | 137.72968 | 20989 ft | 402 kts | 278° |
| 2026-05-07 13:57 | 36.19273 | 137.69584 | 20739 ft | 401 kts | 277° |
| 2026-05-07 13:57 | 36.19823 | 137.66205 | 20494 ft | 399 kts | 277° |
| 2026-05-07 13:57 | 36.20371 | 137.62842 | 20263 ft | 398 kts | 278° |
| 2026-05-07 13:57 | 36.20916 | 137.59490 | 20035 ft | 397 kts | 277° |
| 2026-05-07 13:58 | 36.21462 | 137.56139 | 19974 ft | 396 kts | 277° |
| 2026-05-07 13:58 | 36.22004 | 137.52815 | 19968 ft | 394 kts | 277° |
| 2026-05-07 13:58 | 36.22544 | 137.49482 | 19971 ft | 393 kts | 277° |
| 2026-05-07 13:58 | 36.23082 | 137.46158 | 19975 ft | 395 kts | 277° |
| 2026-05-07 13:59 | 36.23617 | 137.42828 | 19963 ft | 393 kts | 277° |
| 2026-05-07 13:59 | 36.24148 | 137.39505 | 19962 ft | 393 kts | 277° |
| 2026-05-07 13:59 | 36.24677 | 137.36188 | 19945 ft | 392 kts | 277° |
| 2026-05-07 13:59 | 36.25204 | 137.32894 | 19200 ft | 391 kts | 277° |
| 2026-05-07 14:00 | 36.25738 | 137.29566 | 18121 ft | 396 kts | 277° |
| 2026-05-07 14:00 | 36.26298 | 137.26205 | 17053 ft | 401 kts | 280° |
| 2026-05-07 14:00 | 36.27320 | 137.22990 | 16286 ft | 403 kts | 295° |
| 2026-05-07 14:00 | 36.28399 | 137.21127 | 15881 ft | 404 kts | 306° |
| 2026-05-07 14:01 | 36.30493 | 137.18813 | 15311 ft | 404 kts | 320° |
| 2026-05-07 14:01 | 36.32919 | 137.16995 | 14732 ft | 399 kts | 325° |
| 2026-05-07 14:01 | 36.35289 | 137.15333 | 14175 ft | 393 kts | 325° |
| 2026-05-07 14:01 | 36.37641 | 137.13662 | 13587 ft | 387 kts | 325° |
| 2026-05-07 14:02 | 36.39984 | 137.11965 | 12998 ft | 381 kts | 324° |
| 2026-05-07 14:02 | 36.42269 | 137.10296 | 12464 ft | 381 kts | 325° |
| 2026-05-07 14:02 | 36.44551 | 137.08622 | 11905 ft | 382 kts | 325° |
| 2026-05-07 14:02 | 36.46798 | 137.06971 | 11473 ft | 374 kts | 325° |
| 2026-05-07 14:03 | 36.48992 | 137.05359 | 11214 ft | 360 kts | 325° |
| 2026-05-07 14:03 | 36.51101 | 137.03809 | 11018 ft | 344 kts | 325° |
| 2026-05-07 14:03 | 36.53118 | 137.02322 | 10875 ft | 329 kts | 325° |
| 2026-05-07 14:03 | 36.55046 | 137.00903 | 10711 ft | 315 kts | 325° |
| 2026-05-07 14:04 | 36.56895 | 136.99540 | 10548 ft | 302 kts | 324° |
| 2026-05-07 14:04 | 36.58677 | 136.98224 | 10272 ft | 295 kts | 324° |
| 2026-05-07 14:04 | 36.60439 | 136.96917 | 9814 ft | 294 kts | 324° |
| 2026-05-07 14:04 | 36.62004 | 136.95341 | 9296 ft | 287 kts | 304° |
| 2026-05-07 14:05 | 36.62874 | 136.93178 | 8784 ft | 277 kts | 279° |
| 2026-05-07 14:05 | 36.62891 | 136.90832 | 8301 ft | 270 kts | 255° |
| 2026-05-07 14:05 | 36.62170 | 136.88704 | 7851 ft | 267 kts | 238° |
| 2026-05-07 14:05 | 36.61185 | 136.86761 | 7424 ft | 264 kts | 236° |
| 2026-05-07 14:06 | 36.60202 | 136.84840 | 7006 ft | 262 kts | 237° |
| 2026-05-07 14:06 | 36.59238 | 136.82913 | 6595 ft | 261 kts | 237° |
| 2026-05-07 14:06 | 36.58295 | 136.81000 | 6211 ft | 259 kts | 237° |
| 2026-05-07 14:06 | 36.57363 | 136.79093 | 5780 ft | 257 kts | 237° |
| 2026-05-07 14:07 | 36.56445 | 136.77211 | 5518 ft | 250 kts | 237° |
| 2026-05-07 14:07 | 36.55568 | 136.75405 | 5370 ft | 238 kts | 237° |
| 2026-05-07 14:07 | 36.54730 | 136.73675 | 5173 ft | 229 kts | 237° |
| 2026-05-07 14:07 | 36.53913 | 136.71984 | 4976 ft | 229 kts | 238° |
| 2026-05-07 14:08 | 36.53247 | 136.70239 | 4939 ft | 215 kts | 246° |
| 2026-05-07 14:08 | 36.52741 | 136.68549 | 4942 ft | 207 kts | 246° |
| 2026-05-07 14:08 | 36.52247 | 136.66887 | 4961 ft | 207 kts | 246° |
| 2026-05-07 14:08 | 36.51742 | 136.65209 | 4968 ft | 209 kts | 246° |
| 2026-05-07 14:09 | 36.51233 | 136.63521 | 4979 ft | 205 kts | 245° |
| 2026-05-07 14:09 | 36.50764 | 136.61968 | 5004 ft | 180 kts | 245° |
| 2026-05-07 14:09 | 36.50346 | 136.60595 | 4962 ft | 159 kts | 244° |
| 2026-05-07 14:09 | 36.49888 | 136.59382 | 4977 ft | 154 kts | 234° |
| 2026-05-07 14:10 | 36.49260 | 136.58297 | 5015 ft | 163 kts | 232° |
| 2026-05-07 14:10 | 36.48546 | 136.57202 | 5773 ft | 166 kts | 226° |
| 2026-05-07 14:10 | 36.47789 | 136.56023 | 5896 ft | 179 kts | 232° |
| 2026-05-07 14:10 | 36.47072 | 136.54746 | 5539 ft | 181 kts | 233° |
| 2026-05-07 14:11 | 36.46341 | 136.53420 | 5129 ft | 199 kts | 233° |
| 2026-05-07 14:11 | 36.45500 | 136.51859 | 4973 ft | 228 kts | 239° |
| 2026-05-07 14:11 | 36.45057 | 136.49945 | 4957 ft | 234 kts | 258° |
| 2026-05-07 14:11 | 36.44903 | 136.47933 | 4970 ft | 235 kts | 261° |
| 2026-05-07 14:12 | 36.44783 | 136.45911 | 4980 ft | 235 kts | 261° |
| 2026-05-07 14:12 | 36.44671 | 136.43882 | 4981 ft | 236 kts | 261° |
| 2026-05-07 14:12 | 36.44562 | 136.41856 | 4981 ft | 235 kts | 261° |
| 2026-05-07 14:12 | 36.44451 | 136.39829 | 4975 ft | 234 kts | 261° |
| 2026-05-07 14:13 | 36.44345 | 136.37832 | 4691 ft | 231 kts | 261° |
| 2026-05-07 14:13 | 36.44242 | 136.35837 | 4283 ft | 232 kts | 262° |
| 2026-05-07 14:13 | 36.44125 | 136.33830 | 3880 ft | 233 kts | 262° |
| 2026-05-07 14:13 | 36.43997 | 136.31830 | 3507 ft | 233 kts | 262° |
| 2026-05-07 14:14 | 36.43856 | 136.29829 | 3119 ft | 233 kts | 261° |
| 2026-05-07 14:14 | 36.43704 | 136.27833 | 2755 ft | 232 kts | 262° |
| 2026-05-07 14:14 | 36.43532 | 136.25843 | 2571 ft | 232 kts | 262° |
| 2026-05-07 14:14 | 36.43629 | 136.23853 | 2537 ft | 235 kts | 286° |
| 2026-05-07 14:15 | 36.44499 | 136.22133 | 2555 ft | 240 kts | 315° |
| 2026-05-07 14:15 | 36.45932 | 136.21119 | 2564 ft | 245 kts | 342° |
| 2026-05-07 14:15 | 36.47616 | 136.20738 | 2580 ft | 247 kts | 351° |
| 2026-05-07 14:15 | 36.49328 | 136.20635 | 2577 ft | 248 kts | 7° |
| 2026-05-07 14:16 | 36.50948 | 136.21425 | 2571 ft | 250 kts | 36° |
| 2026-05-07 14:16 | 36.52072 | 136.23012 | 2553 ft | 248 kts | 63° |
| 2026-05-07 14:16 | 36.52640 | 136.25028 | 2438 ft | 248 kts | 77° |
| 2026-05-07 14:16 | 36.53064 | 136.27114 | 2442 ft | 249 kts | 77° |
| 2026-05-07 14:17 | 36.53499 | 136.29190 | 2460 ft | 248 kts | 76° |
| 2026-05-07 14:17 | 36.53951 | 136.31259 | 2472 ft | 248 kts | 76° |
| 2026-05-07 14:17 | 36.54414 | 136.33327 | 2475 ft | 248 kts | 76° |
| 2026-05-07 14:17 | 36.54881 | 136.35390 | 2476 ft | 248 kts | 75° |
| 2026-05-07 14:18 | 36.55353 | 136.37455 | 2477 ft | 248 kts | 75° |
| 2026-05-07 14:18 | 36.55827 | 136.39512 | 2471 ft | 247 kts | 75° |
| 2026-05-07 14:18 | 36.56302 | 136.41569 | 2467 ft | 248 kts | 75° |
| 2026-05-07 14:18 | 36.56777 | 136.43626 | 2476 ft | 247 kts | 75° |
| 2026-05-07 14:19 | 36.57253 | 136.45681 | 2475 ft | 247 kts | 75° |
| 2026-05-07 14:19 | 36.57725 | 136.47735 | 2477 ft | 247 kts | 75° |
| 2026-05-07 14:19 | 36.58198 | 136.49791 | 2472 ft | 247 kts | 75° |
| 2026-05-07 14:19 | 36.58667 | 136.51842 | 2470 ft | 246 kts | 76° |
| 2026-05-07 14:20 | 36.58875 | 136.53944 | 2433 ft | 245 kts | 97° |
| 2026-05-07 14:20 | 36.58377 | 136.55929 | 2422 ft | 241 kts | 124° |
| 2026-05-07 14:20 | 36.57244 | 136.57422 | 2418 ft | 237 kts | 149° |
| 2026-05-07 14:20 | 36.55740 | 136.58204 | 2423 ft | 234 kts | 168° |
| 2026-05-07 14:21 | 36.54150 | 136.58646 | 2422 ft | 234 kts | 169° |
| 2026-05-07 14:21 | 36.52558 | 136.59085 | 2421 ft | 235 kts | 169° |
| 2026-05-07 14:21 | 36.50951 | 136.59361 | 2416 ft | 232 kts | 186° |
| 2026-05-07 14:21 | 36.49460 | 136.58700 | 2399 ft | 230 kts | 219° |
| 2026-05-07 14:22 | 36.48427 | 136.57211 | 2264 ft | 227 kts | 236° |
| 2026-05-07 14:22 | 36.47584 | 136.55567 | 1967 ft | 222 kts | 237° |
| 2026-05-07 14:22 | 36.46773 | 136.54012 | 1813 ft | 205 kts | 237° |
| 2026-05-07 14:22 | 36.46018 | 136.52599 | 1718 ft | 188 kts | 236° |
| 2026-05-07 14:23 | 36.45321 | 136.51319 | 1679 ft | 170 kts | 236° |
| 2026-05-07 14:23 | 36.44693 | 136.50173 | 1640 ft | 148 kts | 236° |
| 2026-05-07 14:23 | 36.44132 | 136.49165 | 1430 ft | 140 kts | 235° |
| 2026-05-07 14:23 | 36.43564 | 136.48189 | 1243 ft | 140 kts | 234° |
| 2026-05-07 14:24 | 36.42987 | 136.47210 | 1076 ft | 140 kts | 234° |
| 2026-05-07 14:24 | 36.42432 | 136.46219 | 885 ft | 140 kts | 236° |
| 2026-05-07 14:24 | 36.41885 | 136.45221 | 699 ft | 140 kts | 233° |
| 2026-05-07 14:24 | 36.41325 | 136.44225 | 512 ft | 140 kts | 234° |
| 2026-05-07 14:25 | 36.40781 | 136.43224 | 332 ft | 140 kts | 233° |
| 2026-05-07 14:25 | 36.40224 | 136.42236 | 152 ft | 140 kts | 234° |
| 2026-05-07 14:25 | 36.39681 | 136.41251 | 36 ft | 134 kts | 236° |
| 2026-05-07 14:25 | 36.39283 | 136.40555 | 36 ft | 56 kts | 235° |
| 2026-05-07 14:26 | 36.39162 | 136.40342 | 32 ft | 27 kts | 234° |
| 2026-05-07 14:26 | 36.39055 | 136.40147 | 32 ft | 28 kts | 237° |
| 2026-05-07 14:26 | 36.38947 | 136.39944 | 36 ft | 27 kts | 235° |
| 2026-05-07 14:26 | 36.38846 | 136.39763 | 37 ft | 21 kts | 236° |
| 2026-05-07 14:27 | 36.38763 | 136.39606 | 36 ft | 22 kts | 247° |
| 2026-05-07 14:27 | 36.38827 | 136.39457 | 34 ft | 23 kts | 327° |
| 2026-05-07 14:27 | 36.38921 | 136.39433 | 36 ft | 16 kts | 34° |
| 2026-05-07 14:27 | 36.38989 | 136.39548 | 36 ft | 18 kts | 55° |
| 2026-05-07 14:28 | 36.39062 | 136.39678 | 35 ft | 19 kts | 55° |
| 2026-05-07 14:28 | 36.39139 | 136.39817 | 34 ft | 20 kts | 56° |
| 2026-05-07 14:28 | 36.39219 | 136.39962 | 31 ft | 21 kts | 55° |
| 2026-05-07 14:28 | 36.39304 | 136.40115 | 32 ft | 22 kts | 55° |
| 2026-05-07 14:29 | 36.39394 | 136.40277 | 32 ft | 23 kts | 55° |
| 2026-05-07 14:29 | 36.39488 | 136.40448 | 35 ft | 25 kts | 56° |
| 2026-05-07 14:29 | 36.39588 | 136.40628 | 36 ft | 26 kts | 56° |
| 2026-05-07 14:29 | 36.39675 | 136.40787 | 35 ft | 16 kts | 54° |
| 2026-05-07 14:30 | 36.39744 | 136.40907 | 34 ft | 18 kts | 55° |
| 2026-05-07 14:30 | 36.39814 | 136.41034 | 32 ft | 18 kts | 55° |
| 2026-05-07 14:30 | 36.39890 | 136.41170 | 31 ft | 20 kts | 55° |
| 2026-05-07 14:30 | 36.39967 | 136.41309 | 31 ft | 17 kts | 55° |
| 2026-05-07 14:31 | 36.40022 | 136.41408 | 32 ft | 12 kts | 55° |
| 2026-05-07 14:31 | 36.40069 | 136.41490 | 34 ft | 9 kts | 48° |
| 2026-05-07 14:31 | 36.40125 | 136.41461 | 32 ft | 7 kts | 326° |
| 2026-05-07 14:31 | 36.40145 | 136.41444 | 31 ft | 0 kts | 325° |